RJOO/ITM METAR and TAF weather

Enter ICAO airport designator
Station Type Date Time Source
RJOO METAR 2020/09/20 00:00 UTC NOAA

RJOO 200000Z 31003KT 260V360 9999 FEW045 SCT140 BKN/// 23/14 Q1015


Station Type Date Time Source
RJOO Decoded METAR 2020/09/20 00:00 UTC NOAA

Osaka International Airport, Japan (RJOO) 34-47N 135-27E 15M
Sep 19, 2020 - 08:00 PM EDT / 2020.09.20 0000 UTC
Wind: from the NW (310 degrees) at 3 MPH (3 KT) (direction variable):0
Visibility: greater than 7 mile(s):0
Sky conditions: mostly cloudy
Temperature: 73 F (23 C)
Dew Point: 57 F (14 C)
Relative Humidity: 56%
Pressure (altimeter): 29.97 in. Hg (1015 hPa)
ob: RJOO 200000Z 31003KT 260V360 9999 FEW045 SCT140 BKN/// 23/14 Q1015
cycle: 0

Station Type Date Time Source
RJOO TAF 2020/09/19 18:30 UTC NOAA

TAF RJOO 191707Z 1918/2100 32005KT 9999 FEW030
BECMG 1923/2001 22005KT
BECMG 2009/2012 34010KT

Example: see airport list